createdAt,value
2017-11-06T00:00:30.647Z,35.80
2017-11-06T00:01:34.062Z,36.83
2017-11-06T00:02:36.569Z,38.38
2017-11-06T00:03:39.174Z,35.45
2017-11-06T00:04:41.654Z,34.60
2017-11-06T00:05:44.216Z,38.10
2017-11-06T00:06:46.717Z,38.35
2017-11-06T00:07:52.316Z,34.92
2017-11-06T00:08:54.980Z,38.25
2017-11-06T00:10:02.226Z,37.22
2017-11-06T00:11:04.889Z,38.85
2017-11-06T00:12:08.305Z,42.53
2017-11-06T00:13:10.866Z,42.20
2017-11-06T00:14:13.604Z,37.70
2017-11-06T00:15:16.481Z,37.13
2017-11-06T00:16:19.261Z,39.85
2017-11-06T00:17:22.285Z,42.70
2017-11-06T00:18:28.668Z,37.80
2017-11-06T00:19:31.940Z,39.50
2017-11-06T00:20:36.894Z,38.90
2017-11-06T00:21:40.896Z,38.47
2017-11-06T00:22:44.137Z,37.63
2017-11-06T00:23:47.919Z,38.05
2017-11-06T00:24:51.291Z,40.92
2017-11-06T00:25:54.070Z,40.40
2017-11-06T00:26:58.243Z,40.05
2017-11-06T00:28:01.444Z,38.25
2017-11-06T00:29:05.728Z,39.47
2017-11-06T00:30:08.372Z,42.38
2017-11-06T00:31:13.088Z,42.42
2017-11-06T00:32:15.591Z,40.45
2017-11-06T00:33:18.226Z,40.85
2017-11-06T00:34:22.075Z,41.03
2017-11-06T00:35:25.720Z,41.55
2017-11-06T00:36:29.052Z,36.92
2017-11-06T00:37:31.646Z,38.80
2017-11-06T00:38:43.663Z,40.28
2017-11-06T00:39:46.967Z,42.00
2017-11-06T00:40:50.177Z,40.08
2017-11-06T00:41:52.661Z,40.33
2017-11-06T00:42:55.443Z,44.40
2017-11-06T00:44:02.535Z,40.42
2017-11-06T00:45:09.092Z,43.30
2017-11-06T00:46:13.162Z,45.67
2017-11-06T00:47:21.703Z,42.70
2017-11-06T00:48:25.003Z,43.00
2017-11-06T00:49:27.738Z,43.45
2017-11-06T00:50:30.226Z,43.60
2017-11-06T00:51:33.685Z,44.47
2017-11-06T00:52:36.175Z,46.03
2017-11-06T00:53:44.512Z,45.45
2017-11-06T00:54:51.691Z,44.78
2017-11-06T00:55:57.900Z,46.35
2017-11-06T00:57:01.314Z,46.17
2017-11-06T00:58:03.864Z,44.25
2017-11-06T00:59:07.125Z,44.85
2017-11-06T01:00:12.864Z,45.33
2017-11-06T01:01:15.371Z,46.30
2017-11-06T01:02:34.305Z,47.22
2017-11-06T01:03:38.283Z,43.75
2017-11-06T01:04:43.004Z,47.08
2017-11-06T01:05:45.539Z,47.60
2017-11-06T01:06:48.372Z,48.40
2017-11-06T01:07:50.872Z,46.97
2017-11-06T01:08:53.963Z,48.15
2017-11-06T01:09:56.907Z,48.83
2017-11-06T01:11:00.691Z,48.92
2017-11-06T01:12:04.854Z,45.90
2017-11-06T01:13:07.757Z,47.50
2017-11-06T01:14:16.347Z,48.13
2017-11-06T01:15:22.848Z,50.10
2017-11-06T01:16:25.562Z,49.25
2017-11-06T01:17:30.180Z,51.83
2017-11-06T01:18:34.497Z,52.08
2017-11-06T01:19:43.194Z,52.08
2017-11-06T01:20:46.926Z,51.30
2017-11-06T01:21:52.595Z,48.78
2017-11-06T01:22:59.317Z,51.47
2017-11-06T01:24:02.373Z,52.58
2017-11-06T01:25:04.866Z,50.30
2017-11-06T01:26:07.752Z,51.45
2017-11-06T01:27:11.021Z,52.85
2017-11-06T01:28:13.566Z,50.45
2017-11-06T01:29:16.080Z,50.88
2017-11-06T01:30:20.152Z,55.72
2017-11-06T01:31:22.686Z,51.88
2017-11-06T01:32:26.592Z,52.95
2017-11-06T01:33:30.324Z,53.03
2017-11-06T01:34:35.295Z,53.10
2017-11-06T01:35:37.809Z,52.00
2017-11-06T01:36:40.495Z,53.38
2017-11-06T01:37:44.853Z,50.20
2017-11-06T01:38:47.338Z,54.90
2017-11-06T01:39:50.230Z,53.20
2017-11-06T01:40:53.378Z,50.10
2017-11-06T01:42:01.871Z,52.53
2017-11-06T01:43:04.392Z,53.20
2017-11-06T01:44:09.421Z,51.03
2017-11-06T01:45:13.171Z,50.28
2017-11-06T01:46:15.910Z,55.00
2017-11-06T01:47:18.431Z,54.95
2017-11-06T01:48:21.212Z,52.28
2017-11-06T01:49:24.984Z,54.08
2017-11-06T01:50:31.930Z,53.72
2017-11-06T01:51:35.175Z,54.65
2017-11-06T01:52:38.670Z,58.15
2017-11-06T01:53:41.168Z,55.75
2017-11-06T01:54:47.051Z,56.20
2017-11-06T01:55:53.072Z,55.55
2017-11-06T01:56:59.166Z,56.50
2017-11-06T01:58:02.566Z,55.92
2017-11-06T01:59:08.139Z,61.65
2017-11-06T02:00:10.952Z,59.92
2017-11-06T02:01:19.530Z,58.03
2017-11-06T02:02:22.558Z,61.58
2017-11-06T02:03:25.948Z,56.58
2017-11-06T02:04:29.681Z,60.30
2017-11-06T02:05:33.257Z,65.35
2017-11-06T02:06:36.924Z,59.85
2017-11-06T02:07:41.512Z,58.90
2017-11-06T02:08:44.035Z,62.85
2017-11-06T02:09:46.952Z,64.62
2017-11-06T02:10:49.482Z,61.88
2017-11-06T02:11:57.410Z,66.20
2017-11-06T02:12:59.987Z,65.95
2017-11-06T02:14:03.685Z,66.00
2017-11-06T02:15:06.772Z,67.43
2017-11-06T02:16:12.020Z,65.75
2017-11-06T02:17:16.989Z,64.75
2017-11-06T02:18:19.591Z,66.80
2017-11-06T02:19:22.392Z,65.78
2017-11-06T02:20:38.098Z,65.57
2017-11-06T02:21:41.654Z,64.62
2017-11-06T02:22:47.356Z,62.95
2017-11-06T02:23:49.885Z,60.45
2017-11-06T02:24:52.487Z,63.00
2017-11-06T02:25:55.040Z,58.08
2017-11-06T02:26:59.470Z,61.22
2017-11-06T02:28:02.557Z,58.80
2017-11-06T02:29:05.436Z,59.10
2017-11-06T02:30:08.601Z,57.72
2017-11-06T02:31:14.714Z,55.40
2017-11-06T02:32:18.277Z,54.90
2017-11-06T02:33:23.812Z,56.05
2017-11-06T02:34:27.710Z,58.30
2017-11-06T02:35:31.376Z,59.33
2017-11-06T02:36:38.703Z,55.22
2017-11-06T02:37:41.486Z,54.38
2017-11-06T02:38:44.101Z,57.67
2017-11-06T02:39:46.760Z,56.28
2017-11-06T02:40:49.456Z,54.65
2017-11-06T02:41:53.072Z,52.53
2017-11-06T02:42:55.697Z,52.80
2017-11-06T02:43:58.209Z,52.03
2017-11-06T02:45:01.186Z,51.33
2017-11-06T02:46:03.716Z,53.00
2017-11-06T02:47:07.479Z,57.30
2017-11-06T02:48:12.482Z,54.63
2017-11-06T02:49:18.186Z,56.20
2017-11-06T02:50:21.443Z,54.13
2017-11-06T02:51:24.259Z,52.65
2017-11-06T02:52:26.779Z,51.08
2017-11-06T02:53:32.994Z,53.22
2017-11-06T02:54:37.340Z,54.88
2017-11-06T02:55:40.171Z,54.00
2017-11-06T02:56:42.658Z,55.88
2017-11-06T02:57:45.362Z,55.60
2017-11-06T02:58:47.856Z,55.85
2017-11-06T02:59:50.823Z,54.70
2017-11-06T03:00:54.118Z,61.88
2017-11-06T03:01:56.960Z,55.65
2017-11-06T03:03:00.224Z,58.35
2017-11-06T03:04:02.920Z,56.42
2017-11-06T03:05:06.203Z,58.72
2017-11-06T03:06:09.794Z,57.95
2017-11-06T03:07:13.105Z,58.53
2017-11-06T03:08:16.948Z,61.53
2017-11-06T03:09:19.463Z,56.90
2017-11-06T03:10:23.884Z,58.90
2017-11-06T03:11:26.670Z,57.80
2017-11-06T03:12:32.461Z,55.38
2017-11-06T03:13:36.470Z,58.85
2017-11-06T03:14:41.583Z,54.90
2017-11-06T03:15:44.251Z,54.85
2017-11-06T03:16:48.249Z,59.28
2017-11-06T03:17:50.753Z,58.05
2017-11-06T03:18:54.193Z,62.50
2017-11-06T03:19:56.877Z,60.20
2017-11-06T03:21:00.362Z,63.22
2017-11-06T03:22:03.008Z,64.53
2017-11-06T03:23:09.880Z,61.88
2017-11-06T03:24:13.988Z,61.37
2017-11-06T03:25:18.827Z,63.00
2017-11-06T03:26:22.837Z,63.75
2017-11-06T03:27:28.060Z,62.42
2017-11-06T03:28:33.533Z,64.62
2017-11-06T03:29:36.893Z,66.03
2017-11-06T03:30:40.967Z,65.28
2017-11-06T03:31:43.746Z,68.87
2017-11-06T03:32:46.248Z,65.62
2017-11-06T03:33:49.896Z,69.18
2017-11-06T03:34:52.402Z,67.93
2017-11-06T03:35:55.253Z,70.30
2017-11-06T03:36:58.517Z,69.10
2017-11-06T03:38:02.109Z,70.28
2017-11-06T03:39:05.850Z,68.62
2017-11-06T03:40:08.422Z,69.30
2017-11-06T03:41:11.036Z,66.43
2017-11-06T03:42:13.522Z,66.55
2017-11-06T03:43:17.097Z,66.97
2017-11-06T03:44:19.597Z,60.53
2017-11-06T03:45:22.949Z,67.03
2017-11-06T03:46:25.449Z,62.65
2017-11-06T03:47:28.298Z,65.00
2017-11-06T03:48:31.716Z,64.10
2017-11-06T03:49:34.221Z,65.07
2017-11-06T03:50:37.342Z,66.07
2017-11-06T03:51:46.452Z,65.10
2017-11-06T03:52:48.980Z,62.05
2017-11-06T03:53:51.679Z,67.65
2017-11-06T03:54:54.784Z,67.00
2017-11-06T03:55:58.253Z,66.43
2017-11-06T03:57:02.259Z,69.90
2017-11-06T03:58:05.788Z,69.20
2017-11-06T03:59:08.302Z,65.35
2017-11-06T04:00:11.928Z,67.87
2017-11-06T04:01:15.399Z,66.62
2017-11-06T04:02:18.899Z,72.43
2017-11-06T04:03:22.153Z,69.30
2017-11-06T04:04:25.478Z,69.75
2017-11-06T04:05:29.186Z,68.05
2017-11-06T04:06:32.551Z,65.87
2017-11-06T04:07:36.472Z,68.25
2017-11-06T04:08:41.454Z,69.28
2017-11-06T04:09:44.888Z,65.00
2017-11-06T04:10:48.046Z,67.62
2017-11-06T04:11:52.743Z,67.78
2017-11-06T04:12:56.286Z,64.28
2017-11-06T04:13:59.780Z,70.00
2017-11-06T04:15:03.382Z,66.75
2017-11-06T04:16:05.903Z,69.50
2017-11-06T04:17:09.945Z,69.82
2017-11-06T04:18:13.267Z,74.37
2017-11-06T04:19:16.825Z,70.25
2017-11-06T04:20:19.732Z,70.65
2017-11-06T04:21:23.194Z,69.82
2017-11-06T04:22:25.691Z,71.65
2017-11-06T04:23:29.220Z,69.10
2017-11-06T04:24:31.707Z,69.10
2017-11-06T04:25:34.469Z,71.53
2017-11-06T04:26:37.040Z,71.45
2017-11-06T04:27:39.806Z,69.62
2017-11-06T04:28:42.340Z,64.93
2017-11-06T04:29:46.524Z,66.20
2017-11-06T04:30:51.060Z,66.15
2017-11-06T04:31:53.915Z,65.90
2017-11-06T04:32:56.433Z,64.37
2017-11-06T04:34:01.170Z,62.03
2017-11-06T04:35:04.155Z,63.50
2017-11-06T04:36:08.297Z,68.78
2017-11-06T04:37:10.853Z,65.60
2017-11-06T04:38:13.576Z,66.97
2017-11-06T04:39:16.148Z,62.13
2017-11-06T04:40:19.933Z,63.80
2017-11-06T04:41:27.864Z,65.35
2017-11-06T04:42:31.372Z,63.90
2017-11-06T04:43:34.067Z,64.47
2017-11-06T04:44:36.661Z,67.20
2017-11-06T04:45:40.173Z,66.15
2017-11-06T04:46:43.556Z,68.00
2017-11-06T04:47:46.833Z,65.10
2017-11-06T04:48:51.384Z,64.45
2017-11-06T04:49:53.918Z,62.13
2017-11-06T04:50:57.371Z,66.45
2017-11-06T04:51:59.865Z,65.90
2017-11-06T04:53:04.005Z,65.90
2017-11-06T04:54:06.654Z,66.28
2017-11-06T04:55:10.200Z,64.30
2017-11-06T04:56:14.225Z,67.95
2017-11-06T04:57:17.080Z,66.93
2017-11-06T04:58:20.380Z,67.05
2017-11-06T04:59:23.053Z,68.10
2017-11-06T05:00:25.949Z,62.42
2017-11-06T05:01:34.159Z,68.07
2017-11-06T05:02:36.666Z,62.62
2017-11-06T05:03:40.401Z,63.90
2017-11-06T05:04:43.659Z,73.85
2017-11-06T05:05:46.514Z,70.18
2017-11-06T05:06:49.979Z,71.40
2017-11-06T05:07:53.384Z,69.62
2017-11-06T05:08:55.952Z,74.10
2017-11-06T05:09:58.530Z,68.40
2017-11-06T05:11:01.443Z,75.90
2017-11-06T05:12:04.786Z,74.57
2017-11-06T05:13:07.285Z,76.50
2017-11-06T05:14:10.740Z,83.35
2017-11-06T05:15:13.240Z,87.00
2017-11-06T05:16:16.806Z,84.13
2017-11-06T05:17:19.320Z,86.55
2017-11-06T05:18:22.024Z,80.80
2017-11-06T05:19:24.598Z,82.85
2017-11-06T05:20:27.388Z,83.87
2017-11-06T05:21:29.941Z,84.37
2017-11-06T05:22:33.443Z,81.10
2017-11-06T05:23:35.932Z,83.60
2017-11-06T05:24:39.278Z,74.93
2017-11-06T05:25:41.772Z,79.65
2017-11-06T05:26:45.293Z,79.93
2017-11-06T05:27:47.811Z,79.25
2017-11-06T05:28:50.635Z,78.15
2017-11-06T05:29:53.125Z,78.18
2017-11-06T05:30:56.995Z,76.87
2017-11-06T05:31:59.512Z,71.55
2017-11-06T05:33:02.205Z,71.22
2017-11-06T05:34:05.487Z,72.10
2017-11-06T05:35:09.054Z,71.15
2017-11-06T05:36:11.669Z,74.37
2017-11-06T05:37:14.616Z,73.35
2017-11-06T05:38:17.110Z,73.53
2017-11-06T05:39:24.390Z,73.35
2017-11-06T05:40:27.371Z,70.15
2017-11-06T05:41:30.620Z,64.47
2017-11-06T05:42:34.199Z,64.70
2017-11-06T05:43:37.214Z,63.72
2017-11-06T05:44:41.287Z,61.50
2017-11-06T05:45:46.273Z,61.00
2017-11-06T05:46:49.482Z,61.55
2017-11-06T05:47:52.156Z,57.95
2017-11-06T05:48:54.848Z,58.97
2017-11-06T05:49:58.143Z,55.12
2017-11-06T05:51:02.883Z,53.75
2017-11-06T05:52:05.491Z,53.95
2017-11-06T05:53:09.990Z,51.90
2017-11-06T05:54:12.600Z,49.33
2017-11-06T05:55:16.621Z,51.10
2017-11-06T05:56:20.168Z,48.00
2017-11-06T05:57:22.970Z,50.25
2017-11-06T05:58:25.512Z,49.58
2017-11-06T05:59:28.863Z,49.35
2017-11-06T06:00:31.406Z,48.85
2017-11-06T06:01:33.934Z,48.53
2017-11-06T06:02:37.479Z,51.08
2017-11-06T06:03:40.171Z,49.65
2017-11-06T06:04:43.841Z,49.35
2017-11-06T06:05:46.399Z,54.17
2017-11-06T06:06:49.819Z,53.13
2017-11-06T06:07:52.724Z,56.20
2017-11-06T06:08:55.976Z,53.50
2017-11-06T06:09:58.651Z,56.83
2017-11-06T06:11:06.820Z,54.88
2017-11-06T06:12:10.215Z,52.90
2017-11-06T06:13:12.764Z,55.78
2017-11-06T06:14:15.514Z,53.90
2017-11-06T06:15:18.013Z,55.03
2017-11-06T06:16:21.516Z,57.78
2017-11-06T06:17:24.797Z,59.25
2017-11-06T06:18:27.480Z,56.30
2017-11-06T06:19:29.988Z,64.15
2017-11-06T06:20:33.410Z,63.70
2017-11-06T06:21:36.016Z,61.13
2017-11-06T06:22:41.529Z,61.45
2017-11-06T06:23:45.987Z,60.83
2017-11-06T06:24:50.678Z,59.78
2017-11-06T06:25:55.283Z,60.28
2017-11-06T06:26:57.933Z,61.58
2017-11-06T06:28:00.434Z,58.58
2017-11-06T06:29:02.993Z,57.58
2017-11-06T06:30:05.505Z,55.20
2017-11-06T06:31:09.483Z,54.33
2017-11-06T06:32:13.589Z,54.65
2017-11-06T06:33:18.642Z,56.17
2017-11-06T06:34:21.173Z,58.70
2017-11-06T06:35:24.552Z,58.83
2017-11-06T06:36:32.106Z,52.67
2017-11-06T06:37:34.582Z,53.22
2017-11-06T06:38:37.402Z,55.45
2017-11-06T06:39:44.039Z,54.35
2017-11-06T06:40:48.539Z,55.80
2017-11-06T06:41:51.789Z,57.10
2017-11-06T06:42:54.279Z,56.28
2017-11-06T06:43:58.308Z,55.83
2017-11-06T06:45:04.460Z,53.78
2017-11-06T06:46:08.230Z,58.67
2017-11-06T06:47:12.594Z,61.35
2017-11-06T06:48:15.093Z,59.63
2017-11-06T06:49:17.966Z,60.12
2017-11-06T06:50:21.224Z,60.97
2017-11-06T06:51:24.087Z,62.08
2017-11-06T06:52:27.427Z,63.72
2017-11-06T06:53:31.092Z,63.85
2017-11-06T06:54:33.595Z,60.90
2017-11-06T06:55:37.280Z,63.05
2017-11-06T06:56:42.752Z,66.37
2017-11-06T06:57:45.474Z,62.62
2017-11-06T06:58:47.960Z,62.35
2017-11-06T06:59:52.610Z,59.55
2017-11-06T07:00:55.128Z,60.12
2017-11-06T07:01:59.654Z,57.15
2017-11-06T07:03:02.170Z,56.37
2017-11-06T07:04:04.855Z,53.90
2017-11-06T07:05:08.105Z,52.72
2017-11-06T07:06:10.833Z,49.53
2017-11-06T07:07:15.193Z,47.78
2017-11-06T07:08:18.000Z,49.47
2017-11-06T07:09:20.484Z,46.90
2017-11-06T07:10:23.149Z,43.83
2017-11-06T07:11:26.473Z,46.35
2017-11-06T07:12:30.723Z,45.92
2017-11-06T07:13:33.236Z,43.75
2017-11-06T07:14:36.867Z,42.33
2017-11-06T07:15:39.368Z,42.30
2017-11-06T07:16:42.110Z,39.13
2017-11-06T07:17:44.609Z,41.53
2017-11-06T07:18:47.164Z,38.33
2017-11-06T07:19:50.424Z,36.75
2017-11-06T07:20:54.340Z,38.20
2017-11-06T07:21:57.121Z,37.67
2017-11-06T07:22:59.668Z,37.20
2017-11-06T07:24:02.384Z,35.53
2017-11-06T07:25:06.121Z,36.78
2017-11-06T07:26:09.066Z,34.85
2017-11-06T07:27:14.662Z,35.17
2017-11-06T07:28:17.201Z,33.22
2017-11-06T07:29:20.997Z,35.25
2017-11-06T07:30:23.514Z,33.08
2017-11-06T07:31:26.871Z,31.95
2017-11-06T07:32:29.384Z,30.50
2017-11-06T07:33:32.265Z,30.30
2017-11-06T07:34:34.753Z,29.95
2017-11-06T07:35:37.552Z,27.80
2017-11-06T07:36:41.236Z,29.15
2017-11-06T07:37:43.857Z,28.15
2017-11-06T07:38:46.359Z,26.27
2017-11-06T07:39:50.795Z,25.33
2017-11-06T07:40:54.570Z,27.45
2017-11-06T07:41:58.336Z,25.80
2017-11-06T07:43:01.303Z,25.48
2017-11-06T07:44:06.815Z,24.98
2017-11-06T07:45:11.665Z,24.00
2017-11-06T07:46:14.737Z,24.02
2017-11-06T07:47:17.307Z,23.52
2017-11-06T07:48:21.845Z,22.45
2017-11-06T07:49:24.344Z,20.55
2017-11-06T07:50:29.003Z,23.00
2017-11-06T07:51:31.813Z,23.15
2017-11-06T07:52:34.460Z,21.62
2017-11-06T07:53:36.927Z,19.77
2017-11-06T07:54:40.795Z,19.10
2017-11-06T07:55:43.297Z,18.40
2017-11-06T07:56:46.561Z,20.33
2017-11-06T07:57:49.050Z,19.70
2017-11-06T07:58:53.832Z,19.25
2017-11-06T07:59:56.715Z,16.83
2017-11-06T08:00:59.843Z,17.70
2017-11-06T08:02:04.063Z,18.55
2017-11-06T08:03:06.660Z,16.85
2017-11-06T08:04:09.220Z,17.77
2017-11-06T08:05:11.941Z,19.87
2017-11-06T08:06:14.629Z,17.70
2017-11-06T08:07:17.290Z,18.40
2017-11-06T08:08:20.697Z,17.77
2017-11-06T08:09:24.156Z,16.92
2017-11-06T08:10:27.489Z,16.25
2017-11-06T08:11:30.735Z,14.45
2017-11-06T08:12:33.337Z,15.45
2017-11-06T08:13:37.146Z,16.67
2017-11-06T08:14:47.177Z,14.32
2017-11-06T08:15:51.595Z,15.30
2017-11-06T08:16:55.218Z,15.38
2017-11-06T08:17:59.182Z,15.27
2017-11-06T08:19:02.480Z,15.38
2017-11-06T08:20:05.510Z,13.90
2017-11-06T08:21:10.764Z,14.40
2017-11-06T08:22:16.122Z,14.90
2017-11-06T08:23:20.270Z,13.30
2017-11-06T08:24:24.372Z,14.48
2017-11-06T08:25:28.528Z,12.23
2017-11-06T08:26:31.696Z,13.05
2017-11-06T08:27:37.571Z,13.32
2017-11-06T08:28:40.958Z,13.02
2017-11-06T08:29:45.716Z,13.82
2017-11-06T08:30:49.840Z,13.15
2017-11-06T08:31:52.897Z,13.40
2017-11-06T08:32:56.554Z,13.43
2017-11-06T08:34:06.146Z,11.88
2017-11-06T08:35:09.210Z,12.10
2017-11-06T08:36:12.656Z,12.35
2017-11-06T08:37:15.996Z,12.85
2017-11-06T08:38:20.509Z,11.98
2017-11-06T08:39:28.267Z,13.02
2017-11-06T08:40:31.659Z,13.60
2017-11-06T08:41:35.101Z,29.27
2017-11-06T08:42:37.747Z,17.48
2017-11-06T08:43:40.258Z,16.10
2017-11-06T08:44:45.157Z,13.70
2017-11-06T08:45:47.863Z,12.35
2017-11-06T08:46:51.962Z,13.82
2017-11-06T08:47:55.252Z,13.07
2017-11-06T08:48:58.126Z,12.05
2017-11-06T08:50:00.610Z,12.02
2017-11-06T08:51:04.790Z,11.23
2017-11-06T08:52:07.281Z,11.48
2017-11-06T08:53:10.748Z,11.45
2017-11-06T08:54:13.256Z,11.15
2017-11-06T08:55:16.600Z,11.15
2017-11-06T08:56:19.437Z,11.00
2017-11-06T08:57:22.010Z,11.25
2017-11-06T08:58:24.501Z,11.95
2017-11-06T08:59:27.110Z,11.18
2017-11-06T09:00:29.609Z,11.02
2017-11-06T09:01:32.097Z,10.98
2017-11-06T09:02:36.122Z,11.02
2017-11-06T09:03:39.600Z,10.60
2017-11-06T09:04:42.336Z,9.93
2017-11-06T09:05:45.508Z,10.95
2017-11-06T09:06:48.004Z,10.30
2017-11-06T09:07:50.729Z,11.60
2017-11-06T09:08:53.238Z,11.40
2017-11-06T09:09:55.896Z,10.35
2017-11-06T09:10:58.949Z,10.40
2017-11-06T09:12:01.633Z,10.70
2017-11-06T09:13:12.323Z,9.60
2017-11-06T09:14:16.788Z,9.27
2017-11-06T09:15:19.420Z,9.60
2017-11-06T09:16:22.713Z,9.45
2017-11-06T09:17:25.966Z,10.23
2017-11-06T09:18:29.979Z,9.77
2017-11-06T09:19:36.240Z,10.25
2017-11-06T09:20:39.541Z,9.85
2017-11-06T09:21:42.180Z,10.02
2017-11-06T09:22:44.813Z,10.52
2017-11-06T09:23:47.812Z,8.00
2017-11-06T09:24:50.435Z,8.48
2017-11-06T09:25:55.978Z,8.35
2017-11-06T09:26:59.279Z,9.60
2017-11-06T09:28:03.737Z,9.27
2017-11-06T09:29:07.023Z,9.25
2017-11-06T09:30:10.304Z,9.07
2017-11-06T09:31:12.782Z,9.02
2017-11-06T09:32:16.206Z,9.32
2017-11-06T09:33:18.718Z,9.55
2017-11-06T09:34:21.448Z,9.20
2017-11-06T09:35:25.152Z,8.60
2017-11-06T09:36:28.123Z,8.85
2017-11-06T09:37:30.982Z,8.18
2017-11-06T09:38:34.053Z,8.68
2017-11-06T09:39:40.143Z,9.48
2017-11-06T09:40:46.567Z,7.87
2017-11-06T09:41:50.927Z,8.57
2017-11-06T09:42:58.926Z,8.10
2017-11-06T09:44:02.244Z,8.30
2017-11-06T09:45:06.959Z,9.18
2017-11-06T09:46:09.438Z,8.27
2017-11-06T09:47:12.023Z,8.32
2017-11-06T09:48:19.430Z,8.18
2017-11-06T09:49:22.733Z,8.48
2017-11-06T09:50:26.016Z,8.40
2017-11-06T09:51:29.547Z,9.00
2017-11-06T09:52:32.051Z,9.20
2017-11-06T09:53:35.036Z,7.25
2017-11-06T09:54:39.538Z,8.40
2017-11-06T09:55:43.514Z,8.20
2017-11-06T09:56:47.083Z,8.38
2017-11-06T09:57:50.001Z,8.05
2017-11-06T09:58:53.898Z,7.60
2017-11-06T09:59:57.623Z,6.57
2017-11-06T10:01:01.187Z,8.10
2017-11-06T10:02:04.429Z,7.78
2017-11-06T10:03:07.361Z,7.65
2017-11-06T10:05:19.723Z,7.03
2017-11-06T10:06:22.301Z,6.85
2017-11-06T10:07:24.771Z,7.43
2017-11-06T10:08:28.390Z,7.00
2017-11-06T10:09:31.630Z,7.30
2017-11-06T10:10:34.116Z,7.10
2017-11-06T10:11:36.939Z,7.40
2017-11-06T10:12:39.432Z,7.53
2017-11-06T10:13:41.928Z,7.20
2017-11-06T10:14:44.927Z,6.28
2017-11-06T10:15:47.720Z,6.22
2017-11-06T10:16:54.120Z,6.45
2017-11-06T10:17:57.097Z,6.10
2017-11-06T10:19:00.326Z,6.70
2017-11-06T10:20:02.864Z,6.70
2017-11-06T10:21:05.415Z,6.57
2017-11-06T10:22:07.989Z,5.93
2017-11-06T10:23:10.760Z,6.60
2017-11-06T10:24:15.126Z,6.00
2017-11-06T10:25:17.612Z,6.40
2017-11-06T10:26:20.086Z,6.15
2017-11-06T10:27:22.682Z,5.90
2017-11-06T10:28:27.250Z,5.80
2017-11-06T10:29:30.272Z,5.68
2017-11-06T10:30:33.643Z,6.00
2017-11-06T10:31:38.017Z,5.70
2017-11-06T10:32:40.646Z,5.60
2017-11-06T10:33:43.934Z,6.07
2017-11-06T10:34:46.521Z,5.87
2017-11-06T10:35:49.341Z,6.03
2017-11-06T10:36:51.961Z,5.30
2017-11-06T10:37:55.005Z,5.20
2017-11-06T10:38:59.823Z,5.03
2017-11-06T10:40:02.693Z,5.82
2017-11-06T10:41:05.738Z,5.80
2017-11-06T10:42:08.610Z,6.62
2017-11-06T10:43:11.558Z,6.25
2017-11-06T10:44:14.377Z,6.72
2017-11-06T10:45:17.155Z,5.30
2017-11-06T10:46:20.839Z,5.40
2017-11-06T10:47:23.808Z,5.87
2017-11-06T10:49:49.313Z,5.25
2017-11-06T10:51:05.893Z,5.37
2017-11-06T10:52:14.620Z,5.90
2017-11-06T10:53:21.604Z,5.75
2017-11-06T10:54:31.168Z,5.07
2017-11-06T10:55:43.957Z,5.47
2017-11-06T10:57:00.734Z,5.50
2017-11-06T10:58:13.266Z,5.12
2017-11-06T11:00:40.126Z,5.65
2017-11-06T11:01:54.526Z,5.68
2017-11-06T11:02:59.243Z,5.50
2017-11-06T11:04:29.071Z,5.40
2017-11-06T11:05:43.456Z,6.05
2017-11-06T11:06:52.168Z,5.47
2017-11-06T11:08:10.616Z,5.15
2017-11-06T11:09:32.051Z,6.72
2017-11-06T11:10:44.257Z,5.75
2017-11-06T11:11:50.059Z,6.10
2017-11-06T11:13:03.905Z,5.03
2017-11-06T11:14:30.948Z,5.47
2017-11-06T11:15:37.365Z,6.10
2017-11-06T11:16:43.508Z,6.20
2017-11-06T11:17:53.529Z,6.25
2017-11-06T11:18:58.512Z,6.05
2017-11-06T11:20:27.813Z,5.97
2017-11-06T11:22:49.240Z,5.60
2017-11-06T11:23:54.590Z,5.53
2017-11-06T11:24:58.162Z,6.03
2017-11-06T11:26:08.684Z,5.90
2017-11-06T11:27:14.401Z,5.53
2017-11-06T11:28:19.757Z,5.22
2017-11-06T11:29:30.769Z,5.03
2017-11-06T11:30:41.432Z,5.85
2017-11-06T11:31:56.907Z,5.37
2017-11-06T11:33:07.791Z,4.82
2017-11-06T11:34:14.845Z,5.45
2017-11-06T11:35:21.552Z,4.45
2017-11-06T11:36:39.408Z,5.18
2017-11-06T11:37:44.065Z,5.05
2017-11-06T11:38:59.657Z,4.37
2017-11-06T11:40:08.098Z,5.22
2017-11-06T11:41:18.520Z,4.70
2017-11-06T11:42:21.930Z,4.53
2017-11-06T11:43:26.569Z,4.55
2017-11-06T11:44:29.188Z,4.82
2017-11-06T11:45:31.813Z,4.53
2017-11-06T11:46:37.144Z,5.07
2017-11-06T11:47:39.906Z,3.95
2017-11-06T11:48:43.340Z,4.82
2017-11-06T11:49:46.837Z,4.93
2017-11-06T11:50:49.317Z,4.40
2017-11-06T11:51:51.816Z,4.22
2017-11-06T11:52:54.304Z,4.25
2017-11-06T11:54:00.642Z,4.60
2017-11-06T11:55:04.277Z,4.20
2017-11-06T11:56:06.789Z,4.22
2017-11-06T11:57:12.028Z,4.60
2017-11-06T11:58:14.564Z,4.00
2017-11-06T11:59:17.909Z,4.28
2017-11-06T12:00:21.261Z,4.65
2017-11-06T12:01:28.786Z,4.55
2017-11-06T12:02:31.377Z,4.15
2017-11-06T12:03:33.897Z,4.20
2017-11-06T12:04:37.280Z,5.05
2017-11-06T12:05:39.812Z,3.62
2017-11-06T12:06:43.117Z,4.22
2017-11-06T12:07:45.691Z,4.30
2017-11-06T12:08:49.178Z,4.40
2017-11-06T12:09:56.347Z,4.12
2017-11-06T12:10:59.134Z,4.15
2017-11-06T12:12:02.657Z,4.22
2017-11-06T12:13:05.147Z,3.95
2017-11-06T12:14:07.649Z,4.85
2017-11-06T12:15:10.355Z,4.00
2017-11-06T12:16:12.929Z,4.22
2017-11-06T12:17:16.931Z,3.37
2017-11-06T12:18:19.420Z,3.22
2017-11-06T12:19:22.277Z,3.85
2017-11-06T12:20:25.628Z,3.65
2017-11-06T12:21:30.648Z,3.65
2017-11-06T12:22:34.067Z,3.95
2017-11-06T12:23:36.763Z,4.43
2017-11-06T12:24:39.278Z,4.07
2017-11-06T12:25:44.671Z,4.32
2017-11-06T12:26:47.919Z,3.80
2017-11-06T12:27:56.912Z,4.37
2017-11-06T12:29:00.167Z,4.10
2017-11-06T12:30:03.169Z,3.58
2017-11-06T12:31:07.634Z,3.40
2017-11-06T12:32:10.150Z,3.72
2017-11-06T12:33:14.433Z,3.22
2017-11-06T12:34:17.023Z,4.20
2017-11-06T12:35:22.278Z,4.03
2017-11-06T12:36:24.809Z,3.53
2017-11-06T12:37:28.634Z,3.85
2017-11-06T12:38:31.156Z,3.50
2017-11-06T12:39:34.634Z,4.18
2017-11-06T12:40:38.208Z,3.55
2017-11-06T12:41:40.688Z,4.00
2017-11-06T12:42:43.294Z,4.18
2017-11-06T12:43:46.562Z,3.70
2017-11-06T12:44:54.435Z,3.45
2017-11-06T12:45:57.436Z,3.53
2017-11-06T12:47:06.973Z,3.60
2017-11-06T12:48:10.480Z,3.62
2017-11-06T12:49:13.262Z,2.65
2017-11-06T12:50:17.534Z,3.35
2017-11-06T12:51:21.697Z,3.62
2017-11-06T12:52:25.796Z,3.03
2017-11-06T12:53:28.504Z,2.83
2017-11-06T12:54:32.288Z,3.20
2017-11-06T12:55:34.833Z,2.83
2017-11-06T12:56:39.555Z,4.07
2017-11-06T12:57:42.050Z,3.67
2017-11-06T12:58:44.628Z,3.45
2017-11-06T12:59:47.902Z,2.80
2017-11-06T13:00:50.655Z,2.80
2017-11-06T13:01:53.166Z,3.08
2017-11-06T13:02:56.442Z,2.67
2017-11-06T13:04:00.621Z,3.70
2017-11-06T13:05:03.310Z,2.55
2017-11-06T13:06:07.437Z,3.12
2017-11-06T13:07:12.601Z,3.28
2017-11-06T13:08:15.516Z,2.95
2017-11-06T13:09:19.048Z,2.42
2017-11-06T13:10:21.873Z,3.03
2017-11-06T13:11:25.397Z,2.50
2017-11-06T13:12:29.103Z,4.45
2017-11-06T13:13:31.709Z,3.65
2017-11-06T13:14:34.222Z,3.47
2017-11-06T13:15:37.374Z,2.97
2017-11-06T13:16:42.682Z,2.40
2017-11-06T13:17:45.239Z,2.65
2017-11-06T13:18:47.768Z,3.03
2017-11-06T13:20:01.139Z,2.72
2017-11-06T13:21:04.487Z,2.95
2017-11-06T13:22:09.723Z,3.28
2017-11-06T13:23:12.939Z,2.55
2017-11-06T13:24:15.616Z,2.50
2017-11-06T13:25:18.976Z,2.42
2017-11-06T13:26:25.572Z,2.78
2017-11-06T13:27:28.815Z,3.33
2017-11-06T13:28:31.503Z,2.80
2017-11-06T13:29:34.934Z,3.37
2017-11-06T13:30:38.696Z,2.37
2017-11-06T13:31:41.248Z,3.45
2017-11-06T13:32:44.308Z,2.40
2017-11-06T13:33:49.563Z,2.95
2017-11-06T13:34:52.275Z,3.10
2017-11-06T13:35:57.307Z,3.45
2017-11-06T13:36:59.912Z,3.40
2017-11-06T13:38:04.438Z,2.35
2017-11-06T13:39:07.129Z,3.28
2017-11-06T13:40:12.375Z,3.00
2017-11-06T13:41:22.283Z,2.80
2017-11-06T13:42:25.556Z,3.15
2017-11-06T13:43:29.347Z,2.92
2017-11-06T13:44:34.181Z,3.30
2017-11-06T13:45:36.983Z,3.00
2017-11-06T13:46:41.202Z,3.28
2017-11-06T13:47:44.157Z,3.65
2017-11-06T13:48:47.712Z,3.22
2017-11-06T13:49:50.185Z,3.20
2017-11-06T13:50:53.267Z,2.60
2017-11-06T13:51:57.096Z,2.92
2017-11-06T13:52:59.679Z,3.00
2017-11-06T13:54:06.889Z,3.20
2017-11-06T13:55:09.544Z,2.65
2017-11-06T13:56:12.292Z,2.87
2017-11-06T13:57:16.057Z,2.80
2017-11-06T13:58:19.950Z,2.47
2017-11-06T13:59:23.504Z,2.40